Time,TemperatureF,DewpointF,PressureIn,WindDirection,WindDirectionDegrees,WindSpeedMPH,WindSpeedGustMPH,Humidity,HourlyPrecipIn,Conditions,Clouds,dailyrainin,SoftwareType,DateUTC
2013-04-03 00:00:00,31.0,13.6,29.88,WSW,258,3.0,11.0,48,0.00,,FEW060,0.00,VWS V14.01,2013-04-03 04:00:00,
2013-04-03 00:02:00,31.0,13.6,29.88,WSW,253,1.0,4.0,48,0.00,,FEW060,0.00,VWS V14.01,2013-04-03 04:02:00,
2013-04-03 00:03:00,31.0,13.6,29.88,SE,141,3.0,5.0,48,0.00,,BKN050,0.00,VWS V14.01,2013-04-03 04:03:00,
2013-04-03 00:08:00,31.0,13.6,29.88,SSW,209,0.0,7.0,48,0.00,,BKN050,0.00,VWS V14.01,2013-04-03 04:08:00,
2013-04-03 00:14:00,31.0,13.6,29.88,North,1,1.0,10.0,48,0.00,,BKN050,0.00,VWS V14.01,2013-04-03 04:14:00,
2013-04-03 00:19:00,31.0,13.6,29.89,SSW,212,0.0,3.0,48,0.00,,BKN050,0.00,VWS V14.01,2013-04-03 04:19:00,
2013-04-03 00:24:00,31.0,13.6,29.89,NW,315,1.0,3.0,48,0.00,,BKN050,0.00,VWS V14.01,2013-04-03 04:24:00,
2013-04-03 00:29:00,31.0,13.6,29.89,SSE,161,0.0,4.0,48,0.00,,BKN050,0.00,VWS V14.01,2013-04-03 04:29:00,
2013-04-03 00:35:00,31.0,14.1,29.89,SSW,208,11.0,14.0,49,0.00,,BKN050,0.00,VWS V14.01,2013-04-03 04:35:00,
2013-04-03 00:40:00,31.0,14.1,29.89,SW,220,0.0,6.0,49,0.00,,BKN050,0.00,VWS V14.01,2013-04-03 04:40:00,
2013-04-03 00:45:00,31.2,14.3,29.89,NW,305,3.0,7.0,49,0.00,,BKN050,0.00,VWS V14.01,2013-04-03 04:45:00,
2013-04-03 00:51:00,31.2,14.7,29.89,SSW,193,7.0,7.0,50,0.00,,BKN050,0.00,VWS V14.01,2013-04-03 04:51:00,
2013-04-03 00:56:00,31.2,14.7,29.89,WNW,301,1.0,5.0,50,0.00,,BKN050,0.00,VWS V14.01,2013-04-03 04:56:00,
2013-04-03 01:02:00,31.2,14.7,29.90,SSW,209,2.0,6.0,50,0.00,,BKN050,0.00,VWS V14.01,2013-04-03 05:02:00,
2013-04-03 01:07:00,31.2,15.2,29.90,WNW,288,4.0,6.0,51,0.00,,OVC055,0.00,VWS V14.01,2013-04-03 05:07:00,
2013-04-03 01:12:00,31.2,15.6,29.90,North,1,2.0,5.0,52,0.00,,OVC055,0.00,VWS V14.01,2013-04-03 05:12:00,
2013-04-03 01:17:00,31.2,16.1,29.90,NNE,31,1.0,4.0,53,0.00,,OVC055,0.00,VWS V14.01,2013-04-03 05:17:00,
2013-04-03 01:22:00,31.2,16.5,29.90,NW,304,3.0,4.0,54,0.00,,OVC055,0.00,VWS V14.01,2013-04-03 05:22:00,
2013-04-03 01:27:00,31.0,15.9,29.90,South,171,1.0,8.0,53,0.00,,OVC055,0.00,VWS V14.01,2013-04-03 05:27:00,
2013-04-03 01:33:00,31.0,15.9,29.91,WNW,294,4.0,8.0,53,0.00,,OVC055,0.00,VWS V14.01,2013-04-03 05:33:00,
2013-04-03 01:38:00,31.0,15.9,29.91,NW,315,2.0,2.0,53,0.00,,OVC055,0.00,VWS V14.01,2013-04-03 05:38:00,
2013-04-03 01:43:00,31.0,15.9,29.91,SE,143,3.0,4.0,53,0.00,,OVC055,0.00,VWS V14.01,2013-04-03 05:43:00,
2013-04-03 01:48:00,31.0,15.4,29.90,NNE,16,1.0,6.0,52,0.00,,OVC055,0.00,VWS V14.01,2013-04-03 05:48:00,
2013-04-03 01:53:00,30.9,15.4,29.90,SW,230,3.0,13.0,52,0.00,,OVC055,0.00,VWS V14.01,2013-04-03 05:53:00,
2013-04-03 01:59:00,30.9,15.4,29.90,NNE,20,8.0,13.0,52,0.00,,OVC055,0.00,VWS V14.01,2013-04-03 05:59:00,
2013-04-03 02:04:00,30.9,15.4,29.90,SE,140,5.0,8.0,52,0.00,,OVC060,0.00,VWS V14.01,2013-04-03 06:04:00,
2013-04-03 02:09:00,30.9,15.4,29.90,WNW,287,0.0,8.0,52,0.00,,OVC060,0.00,VWS V14.01,2013-04-03 06:09:00,
2013-04-03 02:15:00,30.7,15.2,29.90,SW,216,5.0,11.0,52,0.00,,OVC060,0.00,VWS V14.01,2013-04-03 06:15:00,
2013-04-03 02:20:00,30.7,14.7,29.90,WNW,292,11.0,11.0,51,0.00,,OVC060,0.00,VWS V14.01,2013-04-03 06:20:00,
2013-04-03 02:25:00,30.7,14.7,29.90,WNW,285,0.0,7.0,51,0.00,,OVC060,0.00,VWS V14.01,2013-04-03 06:25:00,
2013-04-03 02:30:00,30.7,14.7,29.89,WSW,257,7.0,11.0,51,0.00,,OVC060,0.00,VWS V14.01,2013-04-03 06:30:00,
2013-04-03 02:35:00,30.7,14.7,29.89,WNW,292,0.0,8.0,51,0.00,,OVC060,0.00,VWS V14.01,2013-04-03 06:35:00,
2013-04-03 02:40:00,30.7,14.7,29.89,North,1,1.0,4.0,51,0.00,,OVC060,0.00,VWS V14.01,2013-04-03 06:40:00,
2013-04-03 02:46:00,30.6,14.6,29.90,WSW,243,0.0,3.0,51,0.00,,OVC060,0.00,VWS V14.01,2013-04-03 06:46:00,
2013-04-03 02:51:00,30.6,14.6,29.90,WNW,292,1.0,11.0,51,0.00,,OVC060,0.00,VWS V14.01,2013-04-03 06:51:00,
2013-04-03 02:56:00,30.4,14.4,29.90,North,7,1.0,12.0,51,0.00,,OVC060,0.00,VWS V14.01,2013-04-03 06:56:00,
2013-04-03 03:02:00,30.4,14.9,29.89,North,3,11.0,12.0,52,0.00,,OVC060,0.00,VWS V14.01,2013-04-03 07:02:00,
2013-04-03 03:07:00,30.4,14.9,29.89,NW,311,3.0,3.0,52,0.00,,OVC050,0.00,VWS V14.01,2013-04-03 07:07:00,
2013-04-03 03:12:00,30.3,14.8,29.89,NNW,337,4.0,5.0,52,0.00,,OVC050,0.00,VWS V14.01,2013-04-03 07:12:00,
2013-04-03 03:17:00,30.3,14.8,29.89,SSE,154,3.0,4.0,52,0.00,,OVC050,0.00,VWS V14.01,2013-04-03 07:17:00,
2013-04-03 03:22:00,30.3,14.4,29.89,SSE,160,3.0,7.0,51,0.00,,OVC050,0.00,VWS V14.01,2013-04-03 07:22:00,
2013-04-03 03:27:00,30.3,13.9,29.89,West,281,8.0,12.0,50,0.00,,OVC050,0.00,VWS V14.01,2013-04-03 07:27:00,
2013-04-03 03:32:00,30.3,13.9,29.90,NW,320,0.0,0.0,50,0.00,,OVC050,0.00,VWS V14.01,2013-04-03 07:32:00,
2013-04-03 03:38:00,30.3,13.9,29.90,WNW,282,10.0,12.0,50,0.00,,OVC050,0.00,VWS V14.01,2013-04-03 07:38:00,
2013-04-03 03:43:00,30.3,14.4,29.90,West,260,2.0,3.0,51,0.00,,OVC050,0.00,VWS V14.01,2013-04-03 07:43:00,
2013-04-03 03:48:00,30.3,13.4,29.89,NW,313,8.0,12.0,49,0.00,,OVC050,0.00,VWS V14.01,2013-04-03 07:48:00,
2013-04-03 03:53:00,30.4,13.1,29.89,WNW,284,11.0,11.0,48,0.00,,OVC050,0.00,VWS V14.01,2013-04-03 07:53:00,
2013-04-03 03:58:00,30.4,13.1,29.89,NW,304,3.0,11.0,48,0.00,,OVC050,0.00,VWS V14.01,2013-04-03 07:58:00,
2013-04-03 04:03:00,30.4,12.6,29.89,NNW,336,5.0,18.0,47,0.00,,OVC055,0.00,VWS V14.01,2013-04-03 08:03:00,
2013-04-03 04:09:00,30.4,13.1,29.89,NNW,336,5.0,5.0,48,0.00,,OVC055,0.00,VWS V14.01,2013-04-03 08:09:00,
2013-04-03 04:14:00,30.3,13.0,29.89,West,280,8.0,8.0,48,0.00,,OVC055,0.00,VWS V14.01,2013-04-03 08:14:00,
2013-04-03 04:19:00,30.1,12.3,29.89,WNW,298,7.0,17.0,47,0.00,,OVC055,0.00,VWS V14.01,2013-04-03 08:19:00,
2013-04-03 04:24:00,30.1,12.8,29.89,North,349,8.0,8.0,48,0.00,,OVC055,0.00,VWS V14.01,2013-04-03 08:24:00,
2013-04-03 04:30:00,30.0,12.7,29.91,WNW,296,6.0,13.0,48,0.00,,OVC055,0.00,VWS V14.01,2013-04-03 08:30:00,
2013-04-03 04:35:00,30.0,13.2,29.91,NNW,335,0.0,5.0,49,0.00,,OVC055,0.00,VWS V14.01,2013-04-03 08:35:00,
2013-04-03 04:40:00,30.0,13.2,29.91,ENE,71,0.0,6.0,49,0.00,,OVC055,0.00,VWS V14.01,2013-04-03 08:40:00,
2013-04-03 04:45:00,30.0,13.2,29.91,NE,56,0.0,0.0,49,0.00,,OVC055,0.00,VWS V14.01,2013-04-03 08:45:00,
2013-04-03 04:51:00,30.0,13.2,29.91,West,263,0.0,2.0,49,0.00,,OVC055,0.00,VWS V14.01,2013-04-03 08:51:00,
2013-04-03 04:56:00,30.0,13.6,29.91,West,278,2.0,2.0,50,0.00,,OVC055,0.00,VWS V14.01,2013-04-03 08:56:00,
2013-04-03 05:01:00,30.0,14.5,29.91,West,278,0.0,0.0,52,0.00,,OVC055,0.00,VWS V14.01,2013-04-03 09:01:00,
2013-04-03 05:06:00,29.8,14.8,29.91,SW,220,1.0,3.0,53,0.00,,FEW050,0.00,VWS V14.01,2013-04-03 09:06:00,
2013-04-03 05:11:00,29.7,15.5,29.91,SW,224,2.0,2.0,55,0.00,,FEW050,0.00,VWS V14.01,2013-04-03 09:11:00,
2013-04-03 05:17:00,29.7,15.5,29.91,SW,223,3.0,5.0,55,0.00,,FEW050,0.00,VWS V14.01,2013-04-03 09:17:00,
2013-04-03 05:22:00,29.5,15.8,29.91,North,0,0.0,1.0,56,0.00,,FEW050,0.00,VWS V14.01,2013-04-03 09:22:00,
2013-04-03 05:27:00,29.5,15.8,29.91,WNW,299,3.0,10.0,56,0.00,,FEW050,0.00,VWS V14.01,2013-04-03 09:27:00,
2013-04-03 05:33:00,29.4,15.7,29.92,WSW,241,0.0,2.0,56,0.00,,FEW050,0.00,VWS V14.01,2013-04-03 09:33:00,
2013-04-03 05:38:00,29.4,15.7,29.92,SSW,199,0.0,1.0,56,0.00,,FEW050,0.00,VWS V14.01,2013-04-03 09:38:00,
2013-04-03 05:43:00,29.4,15.2,29.92,West,264,3.0,6.0,55,0.00,,FEW050,0.00,VWS V14.01,2013-04-03 09:43:00,
2013-04-03 05:48:00,29.4,15.7,29.93,North,359,0.0,1.0,56,0.00,,FEW050,0.00,VWS V14.01,2013-04-03 09:48:00,
2013-04-03 05:53:00,29.4,16.1,29.93,North,3,8.0,8.0,57,0.00,,FEW050,0.00,VWS V14.01,2013-04-03 09:53:00,
2013-04-03 05:58:00,29.4,16.5,29.93,NW,315,11.0,11.0,58,0.00,,FEW050,0.00,VWS V14.01,2013-04-03 09:58:00,
2013-04-03 06:04:00,29.3,16.4,29.94,WNW,302,2.0,3.0,58,0.00,,OVC050,0.00,VWS V14.01,2013-04-03 10:04:00,
2013-04-03 06:09:00,29.1,16.2,29.94,West,267,2.0,3.0,58,0.00,,OVC050,0.00,VWS V14.01,2013-04-03 10:09:00,
2013-04-03 06:14:00,29.0,16.1,29.94,NW,326,0.0,3.0,58,0.00,,OVC050,0.00,VWS V14.01,2013-04-03 10:14:00,
2013-04-03 06:19:00,28.8,16.3,29.94,WSW,246,5.0,5.0,59,0.00,,OVC050,0.00,VWS V14.01,2013-04-03 10:19:00,
2013-04-03 06:24:00,28.7,16.2,29.94,NE,34,1.0,5.0,59,0.00,,OVC050,0.00,VWS V14.01,2013-04-03 10:24:00,
2013-04-03 06:30:00,28.5,16.4,29.94,North,4,3.0,3.0,60,0.00,,OVC050,0.00,VWS V14.01,2013-04-03 10:30:00,
2013-04-03 06:35:00,28.2,16.1,29.94,WNW,289,5.0,13.0,60,0.00,,OVC050,0.00,VWS V14.01,2013-04-03 10:35:00,
2013-04-03 06:40:00,28.2,16.1,29.94,WSW,239,1.0,2.0,60,0.00,,OVC050,0.00,VWS V14.01,2013-04-03 10:40:00,
2013-04-03 06:45:00,28.1,16.4,29.95,WSW,244,0.0,6.0,61,0.00,,OVC050,0.00,VWS V14.01,2013-04-03 10:45:00,
2013-04-03 06:51:00,28.1,16.4,29.95,West,272,2.0,4.0,61,0.00,,OVC050,0.00,VWS V14.01,2013-04-03 10:51:00,
2013-04-03 06:56:00,28.1,16.0,29.95,SW,234,1.0,3.0,60,0.00,,OVC050,0.00,VWS V14.01,2013-04-03 10:56:00,
2013-04-03 07:02:00,28.2,15.7,29.95,West,260,0.0,5.0,59,0.00,,OVC050,0.00,VWS V14.01,2013-04-03 11:02:00,
2013-04-03 07:07:00,28.4,15.9,29.95,NNE,14,3.0,4.0,59,0.00,,SCT045,0.00,VWS V14.01,2013-04-03 11:07:00,
2013-04-03 07:12:00,28.5,15.6,29.95,WSW,254,3.0,6.0,58,0.00,,SCT045,0.00,VWS V14.01,2013-04-03 11:12:00,
2013-04-03 07:17:00,28.7,15.4,29.96,WNW,289,2.0,6.0,57,0.00,,SCT045,0.00,VWS V14.01,2013-04-03 11:17:00,
2013-04-03 07:22:00,29.0,14.9,29.96,North,357,6.0,17.0,55,0.00,,SCT045,0.00,VWS V14.01,2013-04-03 11:22:00,
2013-04-03 07:27:00,29.1,14.5,29.96,NW,323,7.0,12.0,54,0.00,,SCT045,0.00,VWS V14.01,2013-04-03 11:27:00,
2013-04-03 07:33:00,29.4,14.4,29.97,WNW,282,8.0,8.0,53,0.00,,SCT045,0.00,VWS V14.01,2013-04-03 11:33:00,
2013-04-03 07:38:00,29.5,14.5,29.97,SW,226,0.0,3.0,53,0.00,,SCT045,0.00,VWS V14.01,2013-04-03 11:38:00,
2013-04-03 07:43:00,29.8,14.3,29.97,West,264,0.0,3.0,52,0.00,,SCT045,0.00,VWS V14.01,2013-04-03 11:43:00,
2013-04-03 07:48:00,30.1,14.6,29.97,WSW,250,8.0,8.0,52,0.00,,SCT045,0.00,VWS V14.01,2013-04-03 11:48:00,
2013-04-03 07:54:00,30.4,13.5,29.97,WNW,289,1.0,14.0,49,0.00,,SCT045,0.00,VWS V14.01,2013-04-03 11:54:00,
2013-04-03 07:59:00,30.7,13.8,29.97,NW,316,2.0,5.0,49,0.00,,SCT045,0.00,VWS V14.01,2013-04-03 11:59:00,
2013-04-03 08:04:00,30.9,14.0,29.97,NNW,337,4.0,4.0,49,0.00,,SCT043,0.00,VWS V14.01,2013-04-03 12:04:00,
2013-04-03 08:09:00,31.0,14.1,29.97,NW,306,3.0,5.0,49,0.00,,SCT043,0.00,VWS V14.01,2013-04-03 12:09:00,
2013-04-03 08:14:00,31.2,14.3,29.97,WSW,248,5.0,6.0,49,0.00,,SCT043,0.00,VWS V14.01,2013-04-03 12:14:00,
2013-04-03 08:20:00,31.3,13.9,29.97,NW,305,0.0,6.0,48,0.00,,SCT043,0.00,VWS V14.01,2013-04-03 12:20:00,
2013-04-03 08:25:00,31.5,14.1,29.97,WNW,294,3.0,5.0,48,0.00,,SCT043,0.00,VWS V14.01,2013-04-03 12:25:00,
2013-04-03 08:30:00,31.6,13.7,29.97,WNW,295,0.0,6.0,47,0.00,,SCT043,0.00,VWS V14.01,2013-04-03 12:30:00,
2013-04-03 08:35:00,31.9,14.0,29.97,West,278,0.0,6.0,47,0.00,,SCT043,0.00,VWS V14.01,2013-04-03 12:35:00,
2013-04-03 08:41:00,32.2,14.2,29.97,ESE,102,0.0,11.0,47,0.00,,SCT043,0.00,VWS V14.01,2013-04-03 12:41:00,
2013-04-03 08:46:00,32.4,13.9,29.97,North,359,0.0,5.0,46,0.00,,SCT043,0.00,VWS V14.01,2013-04-03 12:46:00,
2013-04-03 08:51:00,32.4,13.4,29.97,West,265,5.0,5.0,45,0.00,,SCT043,0.00,VWS V14.01,2013-04-03 12:51:00,
2013-04-03 08:57:00,32.7,14.2,29.97,West,267,8.0,8.0,46,0.00,,SCT043,0.00,VWS V14.01,2013-04-03 12:57:00,
2013-04-03 09:02:00,33.1,14.1,29.97,WNW,301,5.0,6.0,45,0.00,,SCT043,0.00,VWS V14.01,2013-04-03 13:02:00,
2013-04-03 09:07:00,33.5,13.9,29.97,SW,219,7.0,7.0,44,0.00,,BKN045,0.00,VWS V14.01,2013-04-03 13:07:00,
2013-04-03 09:12:00,34.0,13.9,29.97,WNW,301,10.0,10.0,43,0.00,,BKN045,0.00,VWS V14.01,2013-04-03 13:12:00,
2013-04-03 09:17:00,34.6,13.9,29.96,NW,305,10.0,11.0,42,0.00,,BKN045,0.00,VWS V14.01,2013-04-03 13:17:00,
2013-04-03 09:22:00,34.4,13.1,29.96,West,268,7.0,13.0,41,0.00,,BKN045,0.00,VWS V14.01,2013-04-03 13:22:00,
2013-04-03 09:28:00,34.4,13.1,29.96,West,270,6.0,7.0,41,0.00,,BKN045,0.00,VWS V14.01,2013-04-03 13:28:00,
2013-04-03 09:33:00,34.3,14.1,29.96,West,265,6.0,9.0,43,0.00,,BKN045,0.00,VWS V14.01,2013-04-03 13:33:00,
2013-04-03 09:38:00,34.3,14.1,29.96,West,277,11.0,11.0,43,0.00,,BKN045,0.00,VWS V14.01,2013-04-03 13:38:00,
2013-04-03 09:43:00,34.6,12.8,29.96,West,280,3.0,8.0,40,0.00,,BKN045,0.00,VWS V14.01,2013-04-03 13:43:00,
2013-04-03 09:48:00,35.0,12.0,29.95,WNW,289,7.0,11.0,38,0.00,,BKN045,0.00,VWS V14.01,2013-04-03 13:48:00,
2013-04-03 09:54:00,35.3,14.0,29.95,North,356,3.0,4.0,41,0.00,,BKN045,0.00,VWS V14.01,2013-04-03 13:54:00,
2013-04-03 09:59:00,35.5,12.4,29.95,WNW,289,6.0,12.0,38,0.00,,BKN045,0.00,VWS V14.01,2013-04-03 13:59:00,
2013-04-03 10:04:00,35.5,11.8,29.95,SSW,198,5.0,16.0,37,0.00,,SCT049,0.00,VWS V14.01,2013-04-03 14:04:00,
2013-04-03 10:09:00,35.3,11.6,29.95,WNW,285,7.0,14.0,37,0.00,,SCT049,0.00,VWS V14.01,2013-04-03 14:09:00,
2013-04-03 10:14:00,35.3,11.6,29.95,SSW,205,2.0,7.0,37,0.00,,SCT049,0.00,VWS V14.01,2013-04-03 14:14:00,
2013-04-03 10:19:00,35.9,12.2,29.95,WNW,292,7.0,13.0,37,0.00,,SCT049,0.00,VWS V14.01,2013-04-03 14:19:00,
2013-04-03 10:25:00,36.3,11.3,29.95,WNW,284,3.0,7.0,35,0.00,,SCT049,0.00,VWS V14.01,2013-04-03 14:25:00,
2013-04-03 10:30:00,36.8,13.0,29.95,NE,42,0.0,7.0,37,0.00,,SCT049,0.00,VWS V14.01,2013-04-03 14:30:00,
2013-04-03 10:35:00,37.3,10.9,29.95,ENE,65,10.0,10.0,33,0.00,,SCT049,0.00,VWS V14.01,2013-04-03 14:35:00,
2013-04-03 10:41:00,37.5,9.6,29.95,West,261,7.0,9.0,31,0.00,,SCT049,0.00,VWS V14.01,2013-04-03 14:41:00,
2013-04-03 10:46:00,36.6,9.6,29.96,SW,223,5.0,13.0,32,0.00,,SCT049,0.00,VWS V14.01,2013-04-03 14:46:00,
2013-04-03 10:51:00,36.9,8.4,29.96,WNW,299,11.0,19.0,30,0.00,,SCT049,0.00,VWS V14.01,2013-04-03 14:51:00,
2013-04-03 10:56:00,36.9,8.4,29.96,WNW,302,5.0,14.0,30,0.00,,SCT049,0.00,VWS V14.01,2013-04-03 14:56:00,
2013-04-03 11:01:00,36.9,10.5,29.96,WNW,292,0.0,7.0,33,0.00,,SCT049,0.00,VWS V14.01,2013-04-03 15:01:00,
2013-04-03 11:07:00,37.6,10.4,29.96,WSW,257,3.0,8.0,32,0.00,,SCT055,0.00,VWS V14.01,2013-04-03 15:07:00,
2013-04-03 11:12:00,37.5,11.0,29.96,SSW,213,3.0,5.0,33,0.00,,SCT055,0.00,VWS V14.01,2013-04-03 15:12:00,
2013-04-03 11:17:00,37.5,9.6,29.96,WNW,294,8.0,11.0,31,0.00,,SCT055,0.00,VWS V14.01,2013-04-03 15:17:00,
2013-04-03 11:22:00,38.5,11.2,29.96,NW,318,0.0,11.0,32,0.00,,SCT055,0.00,VWS V14.01,2013-04-03 15:22:00,
2013-04-03 11:27:00,38.8,12.2,29.96,NNE,21,1.0,3.0,33,0.00,,SCT055,0.00,VWS V14.01,2013-04-03 15:27:00,
2013-04-03 11:33:00,39.1,9.5,29.95,NW,318,8.0,10.0,29,0.00,,SCT055,0.00,VWS V14.01,2013-04-03 15:33:00,
2013-04-03 11:38:00,39.2,9.6,29.95,South,181,6.0,11.0,29,0.00,,SCT055,0.00,VWS V14.01,2013-04-03 15:38:00,
2013-04-03 11:43:00,38.8,9.3,29.95,WSW,247,0.0,8.0,29,0.00,,SCT055,0.00,VWS V14.01,2013-04-03 15:43:00,
2013-04-03 11:48:00,39.5,11.4,29.95,WNW,282,11.0,12.0,31,0.00,,SCT055,0.00,VWS V14.01,2013-04-03 15:48:00,
2013-04-03 11:54:00,38.9,8.6,29.95,WNW,288,3.0,13.0,28,0.00,,SCT055,0.00,VWS V14.01,2013-04-03 15:54:00,
2013-04-03 11:59:00,38.9,9.4,29.95,WNW,295,0.0,11.0,29,0.00,,SCT055,0.00,VWS V14.01,2013-04-03 15:59:00,
2013-04-03 12:04:00,39.1,10.3,29.95,West,275,5.0,12.0,30,0.00,,SCT060,0.00,VWS V14.01,2013-04-03 16:04:00,
2013-04-03 12:09:00,39.5,9.9,29.95,North,350,11.0,11.0,29,0.00,,SCT060,0.00,VWS V14.01,2013-04-03 16:09:00,
2013-04-03 12:14:00,39.5,9.1,29.95,SE,144,2.0,12.0,28,0.00,,SCT060,0.00,VWS V14.01,2013-04-03 16:14:00,
2013-04-03 12:20:00,39.9,11.7,29.94,WSW,241,5.0,5.0,31,0.00,,SCT060,0.00,VWS V14.01,2013-04-03 16:20:00,
2013-04-03 12:25:00,39.9,11.0,29.94,NNW,328,6.0,8.0,30,0.00,,SCT060,0.00,VWS V14.01,2013-04-03 16:25:00,
2013-04-03 12:30:00,39.9,8.6,29.94,West,270,9.0,16.0,27,0.00,,SCT060,0.00,VWS V14.01,2013-04-03 16:30:00,
2013-04-03 12:35:00,40.1,11.9,29.94,West,265,6.0,11.0,31,0.00,,SCT060,0.00,VWS V14.01,2013-04-03 16:35:00,
2013-04-03 12:41:00,40.2,8.9,29.94,NNW,336,5.0,11.0,27,0.00,,SCT060,0.00,VWS V14.01,2013-04-03 16:41:00,
2013-04-03 12:46:00,39.9,8.6,29.94,West,281,8.0,10.0,27,0.00,,SCT060,0.00,VWS V14.01,2013-04-03 16:46:00,
2013-04-03 12:51:00,40.6,10.1,29.94,NNW,329,8.0,9.0,28,0.00,,SCT060,0.00,VWS V14.01,2013-04-03 16:51:00,
2013-04-03 12:56:00,40.5,10.8,29.94,SW,233,14.0,14.0,29,0.00,,SCT060,0.00,VWS V14.01,2013-04-03 16:56:00,
2013-04-03 13:01:00,40.6,11.6,29.94,West,280,3.0,6.0,30,0.00,,SCT060,0.00,VWS V14.01,2013-04-03 17:01:00,
2013-04-03 13:06:00,40.8,9.4,29.94,ESE,119,5.0,6.0,27,0.00,,CLR,0.00,VWS V14.01,2013-04-03 17:06:00,
2013-04-03 13:11:00,40.8,9.4,29.94,North,7,10.0,13.0,27,0.00,,CLR,0.00,VWS V14.01,2013-04-03 17:11:00,
2013-04-03 13:17:00,40.3,9.8,29.94,WSW,257,1.0,11.0,28,0.00,,CLR,0.00,VWS V14.01,2013-04-03 17:17:00,
2013-04-03 13:22:00,40.9,12.6,29.94,West,265,6.0,8.0,31,0.00,,CLR,0.00,VWS V14.01,2013-04-03 17:22:00,
2013-04-03 13:27:00,41.6,11.7,29.94,NE,47,4.0,4.0,29,0.00,,CLR,0.00,VWS V14.01,2013-04-03 17:27:00,
2013-04-03 13:32:00,42.1,10.6,29.93,SW,232,4.0,5.0,27,0.00,,CLR,0.00,VWS V14.01,2013-04-03 17:32:00,
2013-04-03 13:37:00,42.3,13.1,29.93,WNW,295,1.0,7.0,30,0.00,,CLR,0.00,VWS V14.01,2013-04-03 17:37:00,
2013-04-03 13:42:00,42.2,10.6,29.93,SW,219,3.0,14.0,27,0.00,,CLR,0.00,VWS V14.01,2013-04-03 17:42:00,
2013-04-03 13:47:00,41.8,11.9,29.93,ESE,123,1.0,2.0,29,0.00,,CLR,0.00,VWS V14.01,2013-04-03 17:47:00,
2013-04-03 13:52:00,42.8,15.7,29.93,SSW,192,6.0,12.0,33,0.00,,CLR,0.00,VWS V14.01,2013-04-03 17:52:00,
2013-04-03 13:57:00,42.5,10.1,29.93,ENE,69,1.0,8.0,26,0.00,,CLR,0.00,VWS V14.01,2013-04-03 17:57:00,
2013-04-03 14:02:00,42.1,10.6,29.93,WSW,247,6.0,11.0,27,0.00,,CLR,0.00,VWS V14.01,2013-04-03 18:02:00,
2013-04-03 14:07:00,42.3,10.7,29.93,West,265,6.0,12.0,27,0.00,,FEW065,0.00,VWS V14.01,2013-04-03 18:07:00,
2013-04-03 14:12:00,41.6,10.9,29.93,WNW,294,2.0,8.0,28,0.00,,FEW065,0.00,VWS V14.01,2013-04-03 18:12:00,
2013-04-03 14:18:00,42.3,10.7,29.93,WSW,241,4.0,6.0,27,0.00,,FEW065,0.00,VWS V14.01,2013-04-03 18:18:00,
2013-04-03 14:23:00,42.6,11.0,29.93,West,263,4.0,7.0,27,0.00,,FEW065,0.00,VWS V14.01,2013-04-03 18:23:00,
2013-04-03 14:28:00,43.2,14.6,29.93,South,191,2.0,9.0,31,0.00,,FEW065,0.00,VWS V14.01,2013-04-03 18:28:00,
2013-04-03 14:33:00,42.8,11.1,29.93,SW,226,5.0,8.0,27,0.00,,FEW065,0.00,VWS V14.01,2013-04-03 18:33:00,
2013-04-03 14:38:00,42.6,9.3,29.93,NW,322,3.0,13.0,25,0.00,,FEW065,0.00,VWS V14.01,2013-04-03 18:38:00,
2013-04-03 14:43:00,42.2,9.8,29.93,West,264,3.0,12.0,26,0.00,,FEW065,0.00,VWS V14.01,2013-04-03 18:43:00,
2013-04-03 14:49:00,42.6,9.3,29.93,West,263,5.0,7.0,25,0.00,,FEW065,0.00,VWS V14.01,2013-04-03 18:49:00,
2013-04-03 14:54:00,42.3,10.7,29.93,SSE,147,1.0,16.0,27,0.00,,FEW065,0.00,VWS V14.01,2013-04-03 18:54:00,
2013-04-03 14:59:00,42.8,10.3,29.93,West,272,12.0,16.0,26,0.00,,FEW065,0.00,VWS V14.01,2013-04-03 18:59:00,
2013-04-03 15:04:00,43.1,10.6,29.93,WNW,282,8.0,16.0,26,0.00,,CLR,0.00,VWS V14.01,2013-04-03 19:04:00,
2013-04-03 15:10:00,42.9,9.5,29.93,NNE,32,5.0,8.0,25,0.00,,CLR,0.00,VWS V14.01,2013-04-03 19:10:00,
2013-04-03 15:15:00,42.9,9.5,29.93,North,359,2.0,8.0,25,0.00,,CLR,0.00,VWS V14.01,2013-04-03 19:15:00,
2013-04-03 15:20:00,43.3,12.4,29.93,WSW,253,3.0,6.0,28,0.00,,CLR,0.00,VWS V14.01,2013-04-03 19:20:00,
2013-04-03 15:25:00,43.8,10.3,29.93,ESE,104,1.0,5.0,25,0.00,,CLR,0.00,VWS V14.01,2013-04-03 19:25:00,
2013-04-03 15:30:00,44.1,10.5,29.92,South,186,3.0,6.0,25,0.00,,CLR,0.00,VWS V14.01,2013-04-03 19:30:00,
2013-04-03 15:36:00,44.2,10.6,29.92,North,0,4.0,10.0,25,0.00,,CLR,0.00,VWS V14.01,2013-04-03 19:36:00,
2013-04-03 15:41:00,44.2,11.5,29.92,North,0,5.0,10.0,26,0.00,,CLR,0.00,VWS V14.01,2013-04-03 19:41:00,
2013-04-03 15:46:00,44.2,9.7,29.92,WNW,298,10.0,13.0,24,0.00,,CLR,0.00,VWS V14.01,2013-04-03 19:46:00,
2013-04-03 15:51:00,43.5,10.9,29.92,East,99,3.0,12.0,26,0.00,,CLR,0.00,VWS V14.01,2013-04-03 19:51:00,
2013-04-03 15:57:00,43.3,11.6,29.92,North,3,3.0,7.0,27,0.00,,CLR,0.00,VWS V14.01,2013-04-03 19:57:00,
2013-04-03 16:01:00,43.3,9.9,29.92,ESE,119,2.0,15.0,25,0.00,,CLR,0.00,VWS V14.01,2013-04-03 20:01:00,
2013-04-03 16:07:00,42.9,10.4,29.92,NW,311,2.0,12.0,26,0.00,,CLR,0.00,VWS V14.01,2013-04-03 20:07:00,
2013-04-03 16:12:00,42.6,9.3,29.92,NW,312,5.0,19.0,25,0.00,,CLR,0.00,VWS V14.01,2013-04-03 20:12:00,
2013-04-03 16:17:00,42.9,10.4,29.93,WNW,296,3.0,10.0,26,0.00,,CLR,0.00,VWS V14.01,2013-04-03 20:17:00,
2013-04-03 16:23:00,43.1,9.7,29.93,West,263,8.0,16.0,25,0.00,,CLR,0.00,VWS V14.01,2013-04-03 20:23:00,
2013-04-03 16:28:00,42.9,9.5,29.93,NW,325,6.0,12.0,25,0.00,,CLR,0.00,VWS V14.01,2013-04-03 20:28:00,
2013-04-03 16:33:00,42.6,9.3,29.93,WNW,294,2.0,12.0,25,0.00,,CLR,0.00,VWS V14.01,2013-04-03 20:33:00,
2013-04-03 16:38:00,42.5,10.1,29.93,North,352,6.0,9.0,26,0.00,,CLR,0.00,VWS V14.01,2013-04-03 20:38:00,
2013-04-03 16:44:00,42.3,10.7,29.93,WNW,287,10.0,13.0,27,0.00,,CLR,0.00,VWS V14.01,2013-04-03 20:44:00,
2013-04-03 16:49:00,42.2,8.9,29.94,East,82,2.0,17.0,25,0.00,,CLR,0.00,VWS V14.01,2013-04-03 20:49:00,
2013-04-03 16:54:00,42.1,10.6,29.94,WNW,298,12.0,12.0,27,0.00,,CLR,0.00,VWS V14.01,2013-04-03 20:54:00,
2013-04-03 16:59:00,41.9,9.5,29.94,NW,320,3.0,10.0,26,0.00,,CLR,0.00,VWS V14.01,2013-04-03 20:59:00,
2013-04-03 17:05:00,41.9,10.4,29.94,North,0,6.0,11.0,27,0.00,,CLR,0.00,VWS V14.01,2013-04-03 21:05:00,
2013-04-03 17:10:00,41.6,10.1,29.94,West,280,1.0,12.0,27,0.00,,CLR,0.00,VWS V14.01,2013-04-03 21:10:00,
2013-04-03 17:15:00,41.3,9.9,29.95,NNW,328,8.0,17.0,27,0.00,,CLR,0.00,VWS V14.01,2013-04-03 21:15:00,
2013-04-03 17:20:00,40.9,9.5,29.95,West,265,3.0,7.0,27,0.00,,CLR,0.00,VWS V14.01,2013-04-03 21:20:00,
2013-04-03 17:25:00,40.8,10.2,29.95,North,359,5.0,6.0,28,0.00,,CLR,0.00,VWS V14.01,2013-04-03 21:25:00,
2013-04-03 17:30:00,40.6,9.2,29.96,WNW,298,3.0,7.0,27,0.00,,CLR,0.00,VWS V14.01,2013-04-03 21:30:00,
2013-04-03 17:35:00,40.3,9.8,29.96,NW,312,6.0,12.0,28,0.00,,CLR,0.00,VWS V14.01,2013-04-03 21:35:00,
2013-04-03 17:40:00,39.9,9.4,29.96,SSW,210,2.0,5.0,28,0.00,,CLR,0.00,VWS V14.01,2013-04-03 21:40:00,
2013-04-03 17:45:00,39.6,8.4,29.97,West,270,5.0,7.0,27,0.00,,CLR,0.00,VWS V14.01,2013-04-03 21:45:00,
2013-04-03 17:51:00,39.5,9.1,29.97,NE,34,5.0,6.0,28,0.00,,CLR,0.00,VWS V14.01,2013-04-03 21:51:00,
2013-04-03 17:56:00,39.2,8.0,29.97,WSW,256,0.0,8.0,27,0.00,,CLR,0.00,VWS V14.01,2013-04-03 21:56:00,
2013-04-03 18:01:00,39.1,9.5,29.97,South,172,1.0,8.0,29,0.00,,CLR,0.00,VWS V14.01,2013-04-03 22:01:00,
2013-04-03 18:06:00,38.9,8.6,29.97,West,270,12.0,16.0,28,0.00,,CLR,0.00,VWS V14.01,2013-04-03 22:06:00,
2013-04-03 18:12:00,38.6,8.3,29.97,NNW,332,11.0,12.0,28,0.00,,CLR,0.00,VWS V14.01,2013-04-03 22:12:00,
2013-04-03 18:17:00,38.5,9.0,29.99,NNE,18,5.0,11.0,29,0.00,,CLR,0.00,VWS V14.01,2013-04-03 22:17:00,
2013-04-03 18:22:00,38.3,8.8,29.99,WNW,284,6.0,9.0,29,0.00,,CLR,0.00,VWS V14.01,2013-04-03 22:22:00,
2013-04-03 18:27:00,38.2,8.8,29.99,WNW,299,6.0,14.0,29,0.00,,CLR,0.00,VWS V14.01,2013-04-03 22:27:00,
2013-04-03 18:33:00,37.9,9.2,30.00,NNE,30,5.0,6.0,30,0.00,,CLR,0.00,VWS V14.01,2013-04-03 22:33:00,
2013-04-03 18:38:00,37.8,9.9,30.00,WNW,298,1.0,10.0,31,0.00,,CLR,0.00,VWS V14.01,2013-04-03 22:38:00,
2013-04-03 18:43:00,37.6,9.7,30.00,North,359,10.0,12.0,31,0.00,,CLR,0.00,VWS V14.01,2013-04-03 22:43:00,
2013-04-03 18:48:00,37.5,9.6,30.01,West,267,1.0,3.0,31,0.00,,CLR,0.00,VWS V14.01,2013-04-03 22:48:00,
2013-04-03 18:53:00,37.2,10.1,30.01,NNW,339,4.0,6.0,32,0.00,,CLR,0.00,VWS V14.01,2013-04-03 22:53:00,
2013-04-03 18:58:00,36.9,9.8,30.01,WNW,299,6.0,7.0,32,0.00,,CLR,0.00,VWS V14.01,2013-04-03 22:58:00,
2013-04-03 19:03:00,36.8,9.7,30.02,West,271,3.0,6.0,32,0.00,,CLR,0.00,VWS V14.01,2013-04-03 23:03:00,
2013-04-03 19:09:00,36.6,10.9,30.02,West,268,3.0,7.0,34,0.00,,CLR,0.00,VWS V14.01,2013-04-03 23:09:00,
2013-04-03 19:14:00,36.3,10.0,30.02,NW,325,7.0,11.0,33,0.00,,CLR,0.00,VWS V14.01,2013-04-03 23:14:00,
2013-04-03 19:19:00,36.2,9.9,30.02,NW,315,3.0,7.0,33,0.00,,CLR,0.00,VWS V14.01,2013-04-03 23:19:00,
2013-04-03 19:24:00,35.9,9.6,30.02,West,275,5.0,12.0,33,0.00,,CLR,0.00,VWS V14.01,2013-04-03 23:24:00,
2013-04-03 19:30:00,35.8,9.5,30.02,NNW,332,2.0,9.0,33,0.00,,CLR,0.00,VWS V14.01,2013-04-03 23:30:00,
2013-04-03 19:35:00,35.6,10.0,30.03,NNW,335,2.0,8.0,34,0.00,,CLR,0.00,VWS V14.01,2013-04-03 23:35:00,
2013-04-03 19:40:00,35.3,10.4,30.03,NNW,336,8.0,11.0,35,0.00,,CLR,0.00,VWS V14.01,2013-04-03 23:40:00,
2013-04-03 19:45:00,35.2,9.7,30.03,WSW,248,13.0,16.0,34,0.00,,CLR,0.00,VWS V14.01,2013-04-03 23:45:00,
2013-04-03 19:50:00,35.0,10.1,30.03,WNW,288,3.0,10.0,35,0.00,,CLR,0.00,VWS V14.01,2013-04-03 23:50:00,
2013-04-03 19:55:00,34.9,10.0,30.03,NNW,335,1.0,11.0,35,0.00,,CLR,0.00,VWS V14.01,2013-04-03 23:55:00,
2013-04-03 20:01:00,34.9,10.0,30.05,West,278,7.0,8.0,35,0.00,,CLR,0.00,VWS V14.01,2013-04-04 00:01:00,
2013-04-03 20:06:00,34.7,9.9,30.05,North,0,6.0,11.0,35,0.00,,CLR,0.00,VWS V14.01,2013-04-04 00:06:00,
2013-04-03 20:12:00,34.6,10.4,30.05,NNW,347,2.0,5.0,36,0.00,,CLR,0.00,VWS V14.01,2013-04-04 00:12:00,
2013-04-03 20:17:00,34.4,10.8,30.06,West,270,2.0,10.0,37,0.00,,CLR,0.00,VWS V14.01,2013-04-04 00:17:00,
2013-04-03 20:22:00,34.3,10.8,30.06,NW,319,2.0,4.0,37,0.00,,CLR,0.00,VWS V14.01,2013-04-04 00:22:00,
2013-04-03 20:27:00,34.1,10.6,30.06,NE,54,3.0,5.0,37,0.00,,CLR,0.00,VWS V14.01,2013-04-04 00:27:00,
2013-04-03 20:32:00,34.0,10.5,30.06,WNW,287,3.0,13.0,37,0.00,,CLR,0.00,VWS V14.01,2013-04-04 00:32:00,
2013-04-03 20:38:00,33.8,10.3,30.06,SW,216,0.0,7.0,37,0.00,,CLR,0.00,VWS V14.01,2013-04-04 00:38:00,
2013-04-03 20:43:00,33.7,10.2,30.06,NE,52,3.0,4.0,37,0.00,,CLR,0.00,VWS V14.01,2013-04-04 00:43:00,
2013-04-03 20:48:00,33.5,10.6,30.08,WNW,291,7.0,11.0,38,0.00,,CLR,0.00,VWS V14.01,2013-04-04 00:48:00,
2013-04-03 20:53:00,33.5,10.6,30.08,NNW,337,2.0,6.0,38,0.00,,CLR,0.00,VWS V14.01,2013-04-04 00:53:00,
2013-04-03 20:59:00,33.4,11.1,30.08,WSW,243,7.0,10.0,39,0.00,,CLR,0.00,VWS V14.01,2013-04-04 00:59:00,
2013-04-03 21:04:00,33.2,10.9,30.08,WNW,289,0.0,2.0,39,0.00,,CLR,0.00,VWS V14.01,2013-04-04 01:04:00,
2013-04-03 21:09:00,33.1,10.9,30.08,West,278,8.0,16.0,39,0.00,,CLR,0.00,VWS V14.01,2013-04-04 01:09:00,
2013-04-03 21:14:00,32.9,10.7,30.08,North,0,3.0,8.0,39,0.00,,CLR,0.00,VWS V14.01,2013-04-04 01:14:00,
2013-04-03 21:19:00,32.8,11.1,30.08,NNW,346,4.0,5.0,40,0.00,,CLR,0.00,VWS V14.01,2013-04-04 01:19:00,
2013-04-03 21:24:00,32.8,11.1,30.08,SSE,148,2.0,10.0,40,0.00,,CLR,0.00,VWS V14.01,2013-04-04 01:24:00,
2013-04-03 21:29:00,32.7,11.1,30.08,NW,304,0.0,8.0,40,0.00,,CLR,0.00,VWS V14.01,2013-04-04 01:29:00,
2013-04-03 21:35:00,32.5,11.4,30.09,West,281,3.0,5.0,41,0.00,,CLR,0.00,VWS V14.01,2013-04-04 01:35:00,
2013-04-03 21:40:00,32.4,11.3,30.09,North,0,2.0,17.0,41,0.00,,CLR,0.00,VWS V14.01,2013-04-04 01:40:00,
2013-04-03 21:45:00,32.2,11.7,30.10,North,350,4.0,5.0,42,0.00,,CLR,0.00,VWS V14.01,2013-04-04 01:45:00,
2013-04-03 21:51:00,32.2,11.7,30.10,North,1,4.0,6.0,42,0.00,,CLR,0.00,VWS V14.01,2013-04-04 01:51:00,
2013-04-03 21:56:00,32.1,11.6,30.10,WSW,254,0.0,2.0,42,0.00,,CLR,0.00,VWS V14.01,2013-04-04 01:56:00,
2013-04-03 22:01:00,31.9,12.0,30.10,NW,309,6.0,9.0,43,0.00,,CLR,0.00,VWS V14.01,2013-04-04 02:01:00,
2013-04-03 22:06:00,31.9,12.0,30.10,West,264,3.0,11.0,43,0.00,,CLR,0.00,VWS V14.01,2013-04-04 02:06:00,
2013-04-03 22:11:00,31.9,12.0,30.10,WSW,246,3.0,5.0,43,0.00,,CLR,0.00,VWS V14.01,2013-04-04 02:11:00,
2013-04-03 22:16:00,31.8,11.9,30.11,West,268,7.0,11.0,43,0.00,,CLR,0.00,VWS V14.01,2013-04-04 02:16:00,
2013-04-03 22:21:00,31.8,11.9,30.11,SSW,202,3.0,7.0,43,0.00,,CLR,0.00,VWS V14.01,2013-04-04 02:21:00,
2013-04-03 22:26:00,31.6,12.2,30.11,NW,323,1.0,2.0,44,0.00,,CLR,0.00,VWS V14.01,2013-04-04 02:26:00,
2013-04-03 22:32:00,31.5,12.1,30.11,West,261,0.0,1.0,44,0.00,,CLR,0.00,VWS V14.01,2013-04-04 02:32:00,
2013-04-03 22:37:00,31.5,12.6,30.11,WNW,302,6.0,8.0,45,0.00,,CLR,0.00,VWS V14.01,2013-04-04 02:37:00,
2013-04-03 22:42:00,31.3,12.4,30.11,WNW,288,6.0,7.0,45,0.00,,CLR,0.00,VWS V14.01,2013-04-04 02:42:00,
2013-04-03 22:47:00,31.5,12.6,30.12,West,281,1.0,1.0,45,0.00,,CLR,0.00,VWS V14.01,2013-04-04 02:47:00,
2013-04-03 22:52:00,31.3,12.4,30.12,WNW,288,5.0,6.0,45,0.00,,CLR,0.00,VWS V14.01,2013-04-04 02:52:00,
2013-04-03 22:58:00,31.3,12.9,30.12,WNW,288,1.0,3.0,46,0.00,,CLR,0.00,VWS V14.01,2013-04-04 02:58:00,
2013-04-03 23:03:00,31.2,12.4,30.12,WSW,250,1.0,5.0,45,0.00,,CLR,0.00,VWS V14.01,2013-04-04 03:03:00,
2013-04-03 23:09:00,31.2,12.8,30.12,NW,305,1.0,11.0,46,0.00,,CLR,0.00,VWS V14.01,2013-04-04 03:09:00,
2013-04-03 23:14:00,31.0,12.7,30.12,WNW,285,3.0,6.0,46,0.00,,CLR,0.00,VWS V14.01,2013-04-04 03:14:00,
2013-04-03 23:19:00,31.0,12.7,30.12,SW,219,0.0,2.0,46,0.00,,CLR,0.00,VWS V14.01,2013-04-04 03:19:00,
2013-04-03 23:24:00,31.0,12.7,30.12,WNW,284,2.0,3.0,46,0.00,,CLR,0.00,VWS V14.01,2013-04-04 03:24:00,
2013-04-03 23:29:00,31.0,12.7,30.12,WSW,256,2.0,4.0,46,0.00,,CLR,0.00,VWS V14.01,2013-04-04 03:29:00,
2013-04-03 23:35:00,31.0,12.7,30.12,West,267,3.0,6.0,46,0.00,,CLR,0.00,VWS V14.01,2013-04-04 03:35:00,
2013-04-03 23:40:00,31.0,12.7,30.12,NNW,343,2.0,7.0,46,0.00,,CLR,0.00,VWS V14.01,2013-04-04 03:40:00,
2013-04-03 23:45:00,30.9,12.6,30.13,WNW,282,6.0,6.0,46,0.00,,CLR,0.00,VWS V14.01,2013-04-04 03:45:00,
2013-04-03 23:50:00,30.9,12.6,30.13,WSW,254,1.0,9.0,46,0.00,,CLR,0.00,VWS V14.01,2013-04-04 03:50:00,
2013-04-03 23:56:00,30.9,12.6,30.13,NNW,337,0.0,10.0,46,0.00,,CLR,0.00,VWS V14.01,2013-04-04 03:56:00,